sensor_id;sensor_type;location;lat;lon;timestamp;P1;durP1;ratioP1;P2;durP2;ratioP2
67512;SDS011;54356;49.812;24.060;2023-05-14T00:00:05;7.65;;;5.03;;
67512;SDS011;54356;49.812;24.060;2023-05-14T00:01:06;6.28;;;4.88;;
67512;SDS011;54356;49.812;24.060;2023-05-14T00:02:06;8.40;;;4.88;;
67512;SDS011;54356;49.812;24.060;2023-05-14T00:03:06;8.77;;;4.43;;
67512;SDS011;54356;49.812;24.060;2023-05-14T00:04:07;7.13;;;5.03;;
67512;SDS011;54356;49.812;24.060;2023-05-14T00:05:07;7.15;;;4.70;;
67512;SDS011;54356;49.812;24.060;2023-05-14T00:06:08;7.55;;;4.70;;
67512;SDS011;54356;49.812;24.060;2023-05-14T00:07:08;6.63;;;3.63;;
67512;SDS011;54356;49.812;24.060;2023-05-14T00:08:08;6.88;;;4.78;;
67512;SDS011;54356;49.812;24.060;2023-05-14T00:09:09;6.63;;;4.85;;
67512;SDS011;54356;49.812;24.060;2023-05-14T00:10:09;8.88;;;4.43;;
67512;SDS011;54356;49.812;24.060;2023-05-14T00:11:09;6.53;;;4.72;;
67512;SDS011;54356;49.812;24.060;2023-05-14T00:12:10;5.78;;;4.90;;
67512;SDS011;54356;49.812;24.060;2023-05-14T00:13:10;9.00;;;4.18;;
67512;SDS011;54356;49.812;24.060;2023-05-14T00:14:10;6.30;;;4.90;;
67512;SDS011;54356;49.812;24.060;2023-05-14T00:15:11;6.28;;;4.32;;
67512;SDS011;54356;49.812;24.060;2023-05-14T00:16:11;5.57;;;4.40;;
67512;SDS011;54356;49.812;24.060;2023-05-14T00:17:11;7.35;;;4.78;;
67512;SDS011;54356;49.812;24.060;2023-05-14T00:18:12;6.55;;;5.03;;
67512;SDS011;54356;49.812;24.060;2023-05-14T00:19:12;6.47;;;4.78;;
67512;SDS011;54356;49.812;24.060;2023-05-14T00:20:13;8.38;;;4.60;;
67512;SDS011;54356;49.812;24.060;2023-05-14T00:21:13;6.50;;;3.88;;
67512;SDS011;54356;49.812;24.060;2023-05-14T00:22:13;9.60;;;4.75;;
67512;SDS011;54356;49.812;24.060;2023-05-14T00:23:14;6.80;;;4.50;;
67512;SDS011;54356;49.812;24.060;2023-05-14T00:24:14;6.80;;;4.90;;
67512;SDS011;54356;49.812;24.060;2023-05-14T00:25:14;6.55;;;4.45;;
67512;SDS011;54356;49.812;24.060;2023-05-14T00:26:15;8.50;;;4.85;;
67512;SDS011;54356;49.812;24.060;2023-05-14T00:27:15;8.40;;;5.15;;
67512;SDS011;54356;49.812;24.060;2023-05-14T00:28:15;9.30;;;5.15;;
67512;SDS011;54356;49.812;24.060;2023-05-14T00:29:16;7.60;;;4.93;;
67512;SDS011;54356;49.812;24.060;2023-05-14T00:30:16;7.80;;;4.38;;
67512;SDS011;54356;49.812;24.060;2023-05-14T00:31:16;10.25;;;4.90;;
67512;SDS011;54356;49.812;24.060;2023-05-14T00:32:16;9.00;;;4.57;;
67512;SDS011;54356;49.812;24.060;2023-05-14T00:33:17;7.05;;;4.10;;
67512;SDS011;54356;49.812;24.060;2023-05-14T00:34:17;6.50;;;4.60;;
67512;SDS011;54356;49.812;24.060;2023-05-14T00:35:17;8.48;;;4.95;;
67512;SDS011;54356;49.812;24.060;2023-05-14T00:36:18;7.68;;;4.82;;
67512;SDS011;54356;49.812;24.060;2023-05-14T00:37:18;7.53;;;4.88;;
67512;SDS011;54356;49.812;24.060;2023-05-14T00:38:18;6.57;;;4.40;;
67512;SDS011;54356;49.812;24.060;2023-05-14T00:39:19;7.45;;;4.30;;
67512;SDS011;54356;49.812;24.060;2023-05-14T00:40:19;5.70;;;4.47;;
67512;SDS011;54356;49.812;24.060;2023-05-14T00:41:24;13.65;;;4.97;;
67512;SDS011;54356;49.812;24.060;2023-05-14T00:42:24;5.40;;;4.05;;
67512;SDS011;54356;49.812;24.060;2023-05-14T00:43:24;6.18;;;4.45;;
67512;SDS011;54356;49.812;24.060;2023-05-14T00:44:25;6.88;;;4.63;;
67512;SDS011;54356;49.812;24.060;2023-05-14T00:45:25;5.82;;;4.22;;
67512;SDS011;54356;49.812;24.060;2023-05-14T00:46:26;8.55;;;4.47;;
67512;SDS011;54356;49.812;24.060;2023-05-14T00:47:27;6.88;;;4.28;;
67512;SDS011;54356;49.812;24.060;2023-05-14T00:48:27;8.23;;;4.70;;
67512;SDS011;54356;49.812;24.060;2023-05-14T00:49:28;9.23;;;4.03;;
67512;SDS011;54356;49.812;24.060;2023-05-14T00:50:28;7.00;;;3.70;;
67512;SDS011;54356;49.812;24.060;2023-05-14T00:51:29;9.35;;;4.00;;
67512;SDS011;54356;49.812;24.060;2023-05-14T00:52:29;8.43;;;4.75;;
67512;SDS011;54356;49.812;24.060;2023-05-14T00:53:30;10.32;;;5.07;;
67512;SDS011;54356;49.812;24.060;2023-05-14T00:54:30;8.13;;;4.78;;
67512;SDS011;54356;49.812;24.060;2023-05-14T00:55:31;8.98;;;4.85;;
67512;SDS011;54356;49.812;24.060;2023-05-14T00:56:31;6.28;;;4.82;;
67512;SDS011;54356;49.812;24.060;2023-05-14T00:57:35;8.05;;;5.13;;
67512;SDS011;54356;49.812;24.060;2023-05-14T00:59:36;6.85;;;4.65;;
67512;SDS011;54356;49.812;24.060;2023-05-14T01:00:37;13.00;;;4.55;;
67512;SDS011;54356;49.812;24.060;2023-05-14T01:01:38;10.13;;;5.07;;
67512;SDS011;54356;49.812;24.060;2023-05-14T01:02:39;8.05;;;4.82;;
67512;SDS011;54356;49.812;24.060;2023-05-14T01:03:39;7.68;;;4.72;;
67512;SDS011;54356;49.812;24.060;2023-05-14T01:04:40;9.63;;;5.30;;
67512;SDS011;54356;49.812;24.060;2023-05-14T01:06:58;9.50;;;4.78;;
67512;SDS011;54356;49.812;24.060;2023-05-14T01:09:16;12.68;;;5.28;;
67512;SDS011;54356;49.812;24.060;2023-05-14T01:14:19;11.90;;;5.05;;
67512;SDS011;54356;49.812;24.060;2023-05-14T01:15:30;11.65;;;4.75;;
67512;SDS011;54356;49.812;24.060;2023-05-14T01:16:32;10.65;;;4.95;;
67512;SDS011;54356;49.812;24.060;2023-05-14T01:17:34;9.20;;;4.38;;
67512;SDS011;54356;49.812;24.060;2023-05-14T01:18:40;11.13;;;4.18;;
67512;SDS011;54356;49.812;24.060;2023-05-14T01:19:43;9.93;;;5.07;;
67512;SDS011;54356;49.812;24.060;2023-05-14T01:20:44;10.85;;;5.30;;
67512;SDS011;54356;49.812;24.060;2023-05-14T01:21:44;9.80;;;4.88;;
67512;SDS011;54356;49.812;24.060;2023-05-14T01:22:45;8.73;;;5.40;;
67512;SDS011;54356;49.812;24.060;2023-05-14T01:23:45;11.50;;;4.90;;
67512;SDS011;54356;49.812;24.060;2023-05-14T01:24:45;15.68;;;5.72;;
67512;SDS011;54356;49.812;24.060;2023-05-14T01:25:45;8.63;;;5.00;;
67512;SDS011;54356;49.812;24.060;2023-05-14T01:26:46;12.80;;;5.43;;
67512;SDS011;54356;49.812;24.060;2023-05-14T01:30:20;13.48;;;5.10;;
67512;SDS011;54356;49.812;24.060;2023-05-14T01:31:26;13.90;;;5.03;;
67512;SDS011;54356;49.812;24.060;2023-05-14T01:33:31;9.20;;;5.28;;
67512;SDS011;54356;49.812;24.060;2023-05-14T01:34:34;10.75;;;5.43;;
67512;SDS011;54356;49.812;24.060;2023-05-14T01:35:36;11.32;;;5.53;;
67512;SDS011;54356;49.812;24.060;2023-05-14T01:36:36;15.02;;;6.05;;
67512;SDS011;54356;49.812;24.060;2023-05-14T01:37:39;15.05;;;5.78;;
67512;SDS011;54356;49.812;24.060;2023-05-14T01:38:40;14.55;;;5.82;;
67512;SDS011;54356;49.812;24.060;2023-05-14T01:39:41;13.32;;;5.18;;
67512;SDS011;54356;49.812;24.060;2023-05-14T01:40:42;13.23;;;5.45;;
67512;SDS011;54356;49.812;24.060;2023-05-14T01:41:43;14.15;;;5.53;;
67512;SDS011;54356;49.812;24.060;2023-05-14T01:42:45;15.73;;;6.20;;
67512;SDS011;54356;49.812;24.060;2023-05-14T01:43:46;13.05;;;5.47;;
67512;SDS011;54356;49.812;24.060;2023-05-14T01:44:46;9.23;;;4.43;;
67512;SDS011;54356;49.812;24.060;2023-05-14T01:45:47;11.77;;;5.80;;
67512;SDS011;54356;49.812;24.060;2023-05-14T01:46:47;11.07;;;5.55;;
67512;SDS011;54356;49.812;24.060;2023-05-14T01:47:48;15.02;;;5.97;;
67512;SDS011;54356;49.812;24.060;2023-05-14T01:48:48;13.30;;;5.82;;
67512;SDS011;54356;49.812;24.060;2023-05-14T01:49:48;15.80;;;6.00;;
67512;SDS011;54356;49.812;24.060;2023-05-14T01:50:49;11.80;;;5.35;;
67512;SDS011;54356;49.812;24.060;2023-05-14T01:51:49;10.65;;;5.05;;
67512;SDS011;54356;49.812;24.060;2023-05-14T01:52:50;16.35;;;6.18;;
67512;SDS011;54356;49.812;24.060;2023-05-14T01:53:50;15.38;;;6.10;;
67512;SDS011;54356;49.812;24.060;2023-05-14T01:54:50;14.05;;;5.57;;
67512;SDS011;54356;49.812;24.060;2023-05-14T01:55:50;16.33;;;5.95;;
67512;SDS011;54356;49.812;24.060;2023-05-14T01:56:51;13.82;;;5.55;;
67512;SDS011;54356;49.812;24.060;2023-05-14T01:57:51;14.38;;;6.03;;
67512;SDS011;54356;49.812;24.060;2023-05-14T01:58:52;14.73;;;6.13;;
67512;SDS011;54356;49.812;24.060;2023-05-14T01:59:52;12.35;;;5.85;;
67512;SDS011;54356;49.812;24.060;2023-05-14T02:00:52;13.57;;;5.88;;
67512;SDS011;54356;49.812;24.060;2023-05-14T02:01:53;13.48;;;5.80;;
67512;SDS011;54356;49.812;24.060;2023-05-14T02:02:53;14.93;;;5.10;;
67512;SDS011;54356;49.812;24.060;2023-05-14T02:03:53;14.15;;;5.20;;
67512;SDS011;54356;49.812;24.060;2023-05-14T02:04:53;18.85;;;5.60;;
67512;SDS011;54356;49.812;24.060;2023-05-14T02:05:54;17.08;;;6.38;;
67512;SDS011;54356;49.812;24.060;2023-05-14T02:06:54;15.93;;;5.80;;
67512;SDS011;54356;49.812;24.060;2023-05-14T02:07:54;12.30;;;5.78;;
67512;SDS011;54356;49.812;24.060;2023-05-14T02:08:55;14.27;;;6.15;;
67512;SDS011;54356;49.812;24.060;2023-05-14T02:09:55;14.73;;;5.85;;
67512;SDS011;54356;49.812;24.060;2023-05-14T02:10:55;10.95;;;4.90;;
67512;SDS011;54356;49.812;24.060;2023-05-14T02:11:56;12.82;;;5.35;;
67512;SDS011;54356;49.812;24.060;2023-05-14T02:12:56;15.10;;;6.22;;
67512;SDS011;54356;49.812;24.060;2023-05-14T02:13:56;13.55;;;5.95;;
67512;SDS011;54356;49.812;24.060;2023-05-14T02:14:57;13.60;;;5.35;;
67512;SDS011;54356;49.812;24.060;2023-05-14T02:15:57;14.18;;;5.82;;
67512;SDS011;54356;49.812;24.060;2023-05-14T02:16:57;13.15;;;5.75;;
67512;SDS011;54356;49.812;24.060;2023-05-14T02:17:58;20.08;;;6.10;;
67512;SDS011;54356;49.812;24.060;2023-05-14T02:18:58;16.85;;;5.43;;
67512;SDS011;54356;49.812;24.060;2023-05-14T02:19:58;14.02;;;5.65;;
67512;SDS011;54356;49.812;24.060;2023-05-14T02:20:59;11.95;;;5.88;;
67512;SDS011;54356;49.812;24.060;2023-05-14T02:21:59;13.73;;;5.93;;
67512;SDS011;54356;49.812;24.060;2023-05-14T02:22:59;16.60;;;6.18;;
67512;SDS011;54356;49.812;24.060;2023-05-14T02:23:59;15.35;;;5.93;;
67512;SDS011;54356;49.812;24.060;2023-05-14T02:25:00;14.63;;;5.95;;
67512;SDS011;54356;49.812;24.060;2023-05-14T02:26:00;16.55;;;6.22;;
67512;SDS011;54356;49.812;24.060;2023-05-14T02:27:01;12.70;;;5.72;;
67512;SDS011;54356;49.812;24.060;2023-05-14T02:28:01;16.17;;;6.30;;
67512;SDS011;54356;49.812;24.060;2023-05-14T02:29:01;12.40;;;5.68;;
67512;SDS011;54356;49.812;24.060;2023-05-14T02:30:02;13.70;;;6.03;;
67512;SDS011;54356;49.812;24.060;2023-05-14T02:31:03;12.77;;;5.78;;
67512;SDS011;54356;49.812;24.060;2023-05-14T02:32:03;10.93;;;5.43;;
67512;SDS011;54356;49.812;24.060;2023-05-14T02:33:04;11.50;;;5.07;;
67512;SDS011;54356;49.812;24.060;2023-05-14T02:34:04;14.25;;;5.40;;
67512;SDS011;54356;49.812;24.060;2023-05-14T02:35:05;13.90;;;5.82;;
67512;SDS011;54356;49.812;24.060;2023-05-14T02:36:06;13.32;;;6.22;;
67512;SDS011;54356;49.812;24.060;2023-05-14T02:37:06;13.50;;;5.60;;
67512;SDS011;54356;49.812;24.060;2023-05-14T02:38:06;13.77;;;6.20;;
67512;SDS011;54356;49.812;24.060;2023-05-14T02:39:07;10.65;;;5.63;;
67512;SDS011;54356;49.812;24.060;2023-05-14T02:40:07;13.57;;;5.38;;
67512;SDS011;54356;49.812;24.060;2023-05-14T02:41:08;10.73;;;5.32;;
67512;SDS011;54356;49.812;24.060;2023-05-14T02:42:08;14.82;;;5.65;;
67512;SDS011;54356;49.812;24.060;2023-05-14T02:43:08;12.57;;;5.93;;
67512;SDS011;54356;49.812;24.060;2023-05-14T02:44:09;13.65;;;5.95;;
67512;SDS011;54356;49.812;24.060;2023-05-14T02:45:09;11.25;;;5.35;;
67512;SDS011;54356;49.812;24.060;2023-05-14T02:46:21;13.07;;;5.53;;
67512;SDS011;54356;49.812;24.060;2023-05-14T02:47:22;12.18;;;6.03;;
67512;SDS011;54356;49.812;24.060;2023-05-14T02:48:22;13.57;;;5.60;;
67512;SDS011;54356;49.812;24.060;2023-05-14T02:49:26;12.18;;;5.53;;
67512;SDS011;54356;49.812;24.060;2023-05-14T02:51:26;16.15;;;6.32;;
67512;SDS011;54356;49.812;24.060;2023-05-14T02:52:26;11.00;;;4.80;;
67512;SDS011;54356;49.812;24.060;2023-05-14T02:53:27;14.13;;;5.80;;
67512;SDS011;54356;49.812;24.060;2023-05-14T02:54:27;10.48;;;5.55;;
67512;SDS011;54356;49.812;24.060;2023-05-14T02:55:27;13.55;;;5.88;;
67512;SDS011;54356;49.812;24.060;2023-05-14T02:56:30;14.75;;;5.47;;
67512;SDS011;54356;49.812;24.060;2023-05-14T02:57:30;12.88;;;5.38;;
67512;SDS011;54356;49.812;24.060;2023-05-14T02:58:31;15.48;;;5.65;;
67512;SDS011;54356;49.812;24.060;2023-05-14T02:59:31;10.52;;;4.68;;
67512;SDS011;54356;49.812;24.060;2023-05-14T03:00:31;16.40;;;5.78;;
67512;SDS011;54356;49.812;24.060;2023-05-14T03:01:32;10.70;;;5.50;;
67512;SDS011;54356;49.812;24.060;2023-05-14T03:02:32;10.88;;;5.55;;
67512;SDS011;54356;49.812;24.060;2023-05-14T03:03:34;12.95;;;6.43;;
67512;SDS011;54356;49.812;24.060;2023-05-14T03:04:34;13.27;;;5.63;;
67512;SDS011;54356;49.812;24.060;2023-05-14T03:05:35;13.63;;;5.15;;
67512;SDS011;54356;49.812;24.060;2023-05-14T03:06:35;8.73;;;4.32;;
67512;SDS011;54356;49.812;24.060;2023-05-14T03:07:35;12.30;;;5.25;;
67512;SDS011;54356;49.812;24.060;2023-05-14T03:08:36;12.38;;;5.85;;
67512;SDS011;54356;49.812;24.060;2023-05-14T03:09:36;11.45;;;5.32;;
67512;SDS011;54356;49.812;24.060;2023-05-14T03:10:36;12.90;;;5.93;;
67512;SDS011;54356;49.812;24.060;2023-05-14T03:11:37;11.68;;;5.22;;
67512;SDS011;54356;49.812;24.060;2023-05-14T03:12:37;9.88;;;5.40;;
67512;SDS011;54356;49.812;24.060;2023-05-14T03:13:37;12.48;;;5.43;;
67512;SDS011;54356;49.812;24.060;2023-05-14T03:14:37;12.38;;;5.18;;
67512;SDS011;54356;49.812;24.060;2023-05-14T03:15:38;15.60;;;5.90;;
67512;SDS011;54356;49.812;24.060;2023-05-14T03:16:38;8.48;;;4.03;;
67512;SDS011;54356;49.812;24.060;2023-05-14T03:17:38;12.82;;;5.35;;
67512;SDS011;54356;49.812;24.060;2023-05-14T03:18:39;10.98;;;5.20;;
67512;SDS011;54356;49.812;24.060;2023-05-14T03:19:39;11.48;;;5.38;;
67512;SDS011;54356;49.812;24.060;2023-05-14T03:20:39;12.75;;;5.57;;
67512;SDS011;54356;49.812;24.060;2023-05-14T03:21:40;9.32;;;5.35;;
67512;SDS011;54356;49.812;24.060;2023-05-14T03:22:40;10.73;;;4.80;;
67512;SDS011;54356;49.812;24.060;2023-05-14T03:23:41;10.55;;;4.95;;
67512;SDS011;54356;49.812;24.060;2023-05-14T03:24:41;13.70;;;5.18;;
67512;SDS011;54356;49.812;24.060;2023-05-14T03:25:41;11.32;;;5.40;;
67512;SDS011;54356;49.812;24.060;2023-05-14T03:26:42;12.18;;;5.25;;
67512;SDS011;54356;49.812;24.060;2023-05-14T03:27:42;12.27;;;4.80;;
67512;SDS011;54356;49.812;24.060;2023-05-14T03:28:42;10.50;;;4.93;;
67512;SDS011;54356;49.812;24.060;2023-05-14T03:29:43;10.07;;;5.38;;
67512;SDS011;54356;49.812;24.060;2023-05-14T03:30:43;12.70;;;6.00;;
67512;SDS011;54356;49.812;24.060;2023-05-14T03:31:43;11.30;;;5.30;;
67512;SDS011;54356;49.812;24.060;2023-05-14T03:32:44;8.05;;;5.05;;
67512;SDS011;54356;49.812;24.060;2023-05-14T03:33:44;11.70;;;5.00;;
67512;SDS011;54356;49.812;24.060;2023-05-14T03:34:44;10.60;;;4.68;;
67512;SDS011;54356;49.812;24.060;2023-05-14T03:35:45;10.35;;;4.63;;
67512;SDS011;54356;49.812;24.060;2023-05-14T03:36:45;11.95;;;5.53;;
67512;SDS011;54356;49.812;24.060;2023-05-14T03:37:45;13.77;;;5.45;;
67512;SDS011;54356;49.812;24.060;2023-05-14T03:38:46;11.43;;;5.45;;
67512;SDS011;54356;49.812;24.060;2023-05-14T03:39:46;11.95;;;5.47;;
67512;SDS011;54356;49.812;24.060;2023-05-14T03:40:46;9.43;;;5.05;;
67512;SDS011;54356;49.812;24.060;2023-05-14T03:41:47;8.32;;;5.18;;
67512;SDS011;54356;49.812;24.060;2023-05-14T03:42:47;12.20;;;5.38;;
67512;SDS011;54356;49.812;24.060;2023-05-14T03:43:47;10.38;;;5.35;;
67512;SDS011;54356;49.812;24.060;2023-05-14T03:44:48;11.75;;;4.95;;
67512;SDS011;54356;49.812;24.060;2023-05-14T03:45:48;14.18;;;5.70;;
67512;SDS011;54356;49.812;24.060;2023-05-14T03:46:48;11.20;;;5.05;;
67512;SDS011;54356;49.812;24.060;2023-05-14T03:47:49;11.20;;;4.35;;
67512;SDS011;54356;49.812;24.060;2023-05-14T03:48:49;12.23;;;5.03;;
67512;SDS011;54356;49.812;24.060;2023-05-14T03:49:49;9.27;;;4.88;;
67512;SDS011;54356;49.812;24.060;2023-05-14T03:50:49;12.82;;;5.72;;
67512;SDS011;54356;49.812;24.060;2023-05-14T03:51:50;13.40;;;5.28;;
67512;SDS011;54356;49.812;24.060;2023-05-14T03:52:50;12.35;;;5.55;;
67512;SDS011;54356;49.812;24.060;2023-05-14T03:53:51;13.23;;;5.45;;
67512;SDS011;54356;49.812;24.060;2023-05-14T03:54:51;11.25;;;4.95;;
67512;SDS011;54356;49.812;24.060;2023-05-14T03:55:52;11.77;;;5.00;;
67512;SDS011;54356;49.812;24.060;2023-05-14T03:56:52;13.27;;;5.22;;
67512;SDS011;54356;49.812;24.060;2023-05-14T03:57:52;11.63;;;5.15;;
67512;SDS011;54356;49.812;24.060;2023-05-14T03:58:53;11.10;;;4.20;;
67512;SDS011;54356;49.812;24.060;2023-05-14T03:59:53;9.32;;;4.97;;
67512;SDS011;54356;49.812;24.060;2023-05-14T04:00:53;10.13;;;5.40;;
67512;SDS011;54356;49.812;24.060;2023-05-14T04:01:53;10.70;;;5.53;;
67512;SDS011;54356;49.812;24.060;2023-05-14T04:02:54;13.63;;;5.28;;
67512;SDS011;54356;49.812;24.060;2023-05-14T04:03:54;8.48;;;4.45;;
67512;SDS011;54356;49.812;24.060;2023-05-14T04:04:54;13.15;;;5.30;;
67512;SDS011;54356;49.812;24.060;2023-05-14T04:05:55;12.07;;;4.43;;
67512;SDS011;54356;49.812;24.060;2023-05-14T04:06:55;9.63;;;4.03;;
67512;SDS011;54356;49.812;24.060;2023-05-14T04:07:55;12.00;;;4.63;;
67512;SDS011;54356;49.812;24.060;2023-05-14T04:08:56;9.57;;;4.53;;
67512;SDS011;54356;49.812;24.060;2023-05-14T04:09:56;10.57;;;5.28;;
67512;SDS011;54356;49.812;24.060;2023-05-14T04:10:56;9.13;;;4.40;;
67512;SDS011;54356;49.812;24.060;2023-05-14T04:11:57;9.18;;;5.18;;
67512;SDS011;54356;49.812;24.060;2023-05-14T04:12:57;13.27;;;4.88;;
67512;SDS011;54356;49.812;24.060;2023-05-14T04:13:57;11.55;;;5.30;;
67512;SDS011;54356;49.812;24.060;2023-05-14T04:14:57;10.43;;;4.80;;
67512;SDS011;54356;49.812;24.060;2023-05-14T04:15:58;7.95;;;4.10;;
67512;SDS011;54356;49.812;24.060;2023-05-14T04:16:58;10.88;;;4.32;;
67512;SDS011;54356;49.812;24.060;2023-05-14T04:17:58;9.63;;;4.93;;
67512;SDS011;54356;49.812;24.060;2023-05-14T04:19:00;8.13;;;4.65;;
67512;SDS011;54356;49.812;24.060;2023-05-14T04:20:01;11.35;;;5.05;;
67512;SDS011;54356;49.812;24.060;2023-05-14T04:21:02;9.15;;;4.45;;
67512;SDS011;54356;49.812;24.060;2023-05-14T04:22:02;8.60;;;5.38;;
67512;SDS011;54356;49.812;24.060;2023-05-14T04:23:03;8.82;;;5.35;;
67512;SDS011;54356;49.812;24.060;2023-05-14T04:24:03;10.10;;;4.88;;
67512;SDS011;54356;49.812;24.060;2023-05-14T04:25:04;13.98;;;4.78;;
67512;SDS011;54356;49.812;24.060;2023-05-14T04:26:05;9.23;;;4.88;;
67512;SDS011;54356;49.812;24.060;2023-05-14T04:27:05;9.05;;;4.35;;
67512;SDS011;54356;49.812;24.060;2023-05-14T04:28:05;8.27;;;4.38;;
67512;SDS011;54356;49.812;24.060;2023-05-14T04:29:06;8.25;;;4.50;;
67512;SDS011;54356;49.812;24.060;2023-05-14T04:30:06;9.13;;;4.82;;
67512;SDS011;54356;49.812;24.060;2023-05-14T04:31:07;11.55;;;5.32;;
67512;SDS011;54356;49.812;24.060;2023-05-14T04:32:07;10.35;;;4.60;;
67512;SDS011;54356;49.812;24.060;2023-05-14T04:33:08;11.05;;;5.05;;
67512;SDS011;54356;49.812;24.060;2023-05-14T04:34:08;10.90;;;4.85;;
67512;SDS011;54356;49.812;24.060;2023-05-14T04:35:08;9.65;;;4.97;;
67512;SDS011;54356;49.812;24.060;2023-05-14T04:36:09;9.57;;;4.82;;
67512;SDS011;54356;49.812;24.060;2023-05-14T04:37:09;8.98;;;5.05;;
67512;SDS011;54356;49.812;24.060;2023-05-14T04:38:09;8.90;;;3.63;;
67512;SDS011;54356;49.812;24.060;2023-05-14T04:39:10;7.25;;;4.68;;
67512;SDS011;54356;49.812;24.060;2023-05-14T04:40:10;8.20;;;4.65;;
67512;SDS011;54356;49.812;24.060;2023-05-14T04:41:10;9.40;;;4.90;;
67512;SDS011;54356;49.812;24.060;2023-05-14T04:42:11;9.35;;;5.22;;
67512;SDS011;54356;49.812;24.060;2023-05-14T04:43:11;11.05;;;5.00;;
67512;SDS011;54356;49.812;24.060;2023-05-14T04:44:11;8.80;;;4.85;;
67512;SDS011;54356;49.812;24.060;2023-05-14T04:45:12;7.18;;;3.58;;
67512;SDS011;54356;49.812;24.060;2023-05-14T04:46:12;8.20;;;4.38;;
67512;SDS011;54356;49.812;24.060;2023-05-14T04:47:12;9.07;;;3.75;;
67512;SDS011;54356;49.812;24.060;2023-05-14T04:48:13;7.80;;;4.20;;
67512;SDS011;54356;49.812;24.060;2023-05-14T04:49:13;10.43;;;4.85;;
67512;SDS011;54356;49.812;24.060;2023-05-14T04:50:13;9.05;;;4.32;;
67512;SDS011;54356;49.812;24.060;2023-05-14T04:51:14;9.50;;;4.35;;
67512;SDS011;54356;49.812;24.060;2023-05-14T04:52:14;10.93;;;5.00;;
67512;SDS011;54356;49.812;24.060;2023-05-14T04:53:15;10.23;;;4.47;;
67512;SDS011;54356;49.812;24.060;2023-05-14T04:54:15;11.40;;;5.05;;
67512;SDS011;54356;49.812;24.060;2023-05-14T04:55:15;10.68;;;4.72;;
67512;SDS011;54356;49.812;24.060;2023-05-14T04:56:16;10.68;;;4.40;;
67512;SDS011;54356;49.812;24.060;2023-05-14T04:57:16;7.05;;;4.45;;
67512;SDS011;54356;49.812;24.060;2023-05-14T04:58:16;7.57;;;4.80;;
67512;SDS011;54356;49.812;24.060;2023-05-14T04:59:17;9.25;;;4.80;;
67512;SDS011;54356;49.812;24.060;2023-05-14T05:00:17;7.70;;;4.55;;
67512;SDS011;54356;49.812;24.060;2023-05-14T05:01:17;7.10;;;4.55;;
67512;SDS011;54356;49.812;24.060;2023-05-14T05:02:18;9.35;;;4.68;;
67512;SDS011;54356;49.812;24.060;2023-05-14T05:03:18;10.95;;;4.60;;
67512;SDS011;54356;49.812;24.060;2023-05-14T05:04:18;11.18;;;4.72;;
67512;SDS011;54356;49.812;24.060;2023-05-14T05:05:19;8.23;;;4.13;;
67512;SDS011;54356;49.812;24.060;2023-05-14T05:06:19;7.68;;;3.83;;
67512;SDS011;54356;49.812;24.060;2023-05-14T05:07:20;9.13;;;4.15;;
67512;SDS011;54356;49.812;24.060;2023-05-14T05:08:20;12.07;;;5.10;;
67512;SDS011;54356;49.812;24.060;2023-05-14T05:09:20;8.02;;;5.07;;
67512;SDS011;54356;49.812;24.060;2023-05-14T05:10:21;7.35;;;4.53;;
67512;SDS011;54356;49.812;24.060;2023-05-14T05:11:21;9.98;;;5.10;;
67512;SDS011;54356;49.812;24.060;2023-05-14T05:12:21;9.70;;;3.80;;
67512;SDS011;54356;49.812;24.060;2023-05-14T05:13:21;7.90;;;4.25;;
67512;SDS011;54356;49.812;24.060;2023-05-14T05:14:22;8.70;;;4.43;;
67512;SDS011;54356;49.812;24.060;2023-05-14T05:15:22;9.48;;;4.68;;
67512;SDS011;54356;49.812;24.060;2023-05-14T05:16:22;7.43;;;4.72;;
67512;SDS011;54356;49.812;24.060;2023-05-14T05:17:23;7.60;;;4.65;;
67512;SDS011;54356;49.812;24.060;2023-05-14T05:18:23;9.25;;;5.18;;
67512;SDS011;54356;49.812;24.060;2023-05-14T05:19:24;7.18;;;4.00;;
67512;SDS011;54356;49.812;24.060;2023-05-14T05:20:24;7.63;;;4.03;;
67512;SDS011;54356;49.812;24.060;2023-05-14T05:21:24;9.57;;;4.47;;
67512;SDS011;54356;49.812;24.060;2023-05-14T05:22:25;10.27;;;4.47;;
67512;SDS011;54356;49.812;24.060;2023-05-14T05:23:25;10.20;;;4.57;;
67512;SDS011;54356;49.812;24.060;2023-05-14T05:24:25;8.65;;;4.63;;
67512;SDS011;54356;49.812;24.060;2023-05-14T05:25:26;8.55;;;4.60;;
67512;SDS011;54356;49.812;24.060;2023-05-14T05:26:26;8.48;;;4.28;;
67512;SDS011;54356;49.812;24.060;2023-05-14T05:27:26;7.25;;;4.30;;
67512;SDS011;54356;49.812;24.060;2023-05-14T05:28:27;8.10;;;3.97;;
67512;SDS011;54356;49.812;24.060;2023-05-14T05:29:27;7.80;;;4.32;;
67512;SDS011;54356;49.812;24.060;2023-05-14T05:30:27;9.00;;;4.10;;
67512;SDS011;54356;49.812;24.060;2023-05-14T05:31:28;8.10;;;4.72;;
67512;SDS011;54356;49.812;24.060;2023-05-14T05:32:29;7.18;;;3.83;;
67512;SDS011;54356;49.812;24.060;2023-05-14T05:33:29;7.53;;;4.40;;
67512;SDS011;54356;49.812;24.060;2023-05-14T05:34:30;6.43;;;4.15;;
67512;SDS011;54356;49.812;24.060;2023-05-14T05:35:30;9.38;;;4.30;;
67512;SDS011;54356;49.812;24.060;2023-05-14T05:36:30;7.55;;;4.50;;
67512;SDS011;54356;49.812;24.060;2023-05-14T05:37:31;7.82;;;4.65;;
67512;SDS011;54356;49.812;24.060;2023-05-14T05:38:31;7.07;;;3.55;;
67512;SDS011;54356;49.812;24.060;2023-05-14T05:39:31;7.88;;;4.72;;
67512;SDS011;54356;49.812;24.060;2023-05-14T05:40:32;9.88;;;4.65;;
67512;SDS011;54356;49.812;24.060;2023-05-14T05:41:32;7.78;;;4.15;;
67512;SDS011;54356;49.812;24.060;2023-05-14T05:42:32;5.72;;;3.88;;
67512;SDS011;54356;49.812;24.060;2023-05-14T05:43:33;7.63;;;4.63;;
67512;SDS011;54356;49.812;24.060;2023-05-14T05:44:33;8.38;;;4.78;;
67512;SDS011;54356;49.812;24.060;2023-05-14T05:45:33;12.55;;;4.68;;
67512;SDS011;54356;49.812;24.060;2023-05-14T05:46:34;8.40;;;4.30;;
67512;SDS011;54356;49.812;24.060;2023-05-14T05:47:34;8.63;;;4.18;;
67512;SDS011;54356;49.812;24.060;2023-05-14T05:48:34;8.65;;;4.40;;
67512;SDS011;54356;49.812;24.060;2023-05-14T05:49:35;6.30;;;4.38;;
67512;SDS011;54356;49.812;24.060;2023-05-14T05:50:35;7.38;;;4.03;;
67512;SDS011;54356;49.812;24.060;2023-05-14T05:51:35;10.48;;;4.38;;
67512;SDS011;54356;49.812;24.060;2023-05-14T05:52:35;7.57;;;4.50;;
67512;SDS011;54356;49.812;24.060;2023-05-14T05:53:36;8.77;;;3.67;;
67512;SDS011;54356;49.812;24.060;2023-05-14T05:54:36;5.47;;;3.08;;
67512;SDS011;54356;49.812;24.060;2023-05-14T05:55:37;10.00;;;4.28;;
67512;SDS011;54356;49.812;24.060;2023-05-14T05:56:37;10.20;;;4.30;;
67512;SDS011;54356;49.812;24.060;2023-05-14T05:57:37;7.50;;;4.20;;
67512;SDS011;54356;49.812;24.060;2023-05-14T05:58:38;7.57;;;4.10;;
67512;SDS011;54356;49.812;24.060;2023-05-14T05:59:38;7.72;;;3.97;;
67512;SDS011;54356;49.812;24.060;2023-05-14T06:00:38;8.20;;;4.20;;
67512;SDS011;54356;49.812;24.060;2023-05-14T06:01:38;9.02;;;4.07;;
67512;SDS011;54356;49.812;24.060;2023-05-14T06:02:39;8.52;;;4.40;;
67512;SDS011;54356;49.812;24.060;2023-05-14T06:03:40;7.25;;;4.15;;
67512;SDS011;54356;49.812;24.060;2023-05-14T06:04:40;7.25;;;4.32;;
67512;SDS011;54356;49.812;24.060;2023-05-14T06:05:41;7.25;;;4.30;;
67512;SDS011;54356;49.812;24.060;2023-05-14T06:06:41;7.90;;;4.40;;
67512;SDS011;54356;49.812;24.060;2023-05-14T06:07:41;5.70;;;3.88;;
67512;SDS011;54356;49.812;24.060;2023-05-14T06:08:41;10.27;;;4.82;;